Ana Sayfa
METAR-TAF:

METAR-TAF

Havaalanları :

Black_Hills

Spearfish, Güney Dakota, Amerika Birleşik Devletleri

Enlem: 44-29N, Boylam: 103-47W, yükseklik: 1188 m

Güncel hava durumu gözlemi

Rapor saat 17:35 UTC de 27 dakika önce yapıldı.
Rüzgar kuzeydoğudan 7 kt, kuzey/kuzeydoğu ve doğu arasında değişken
Sıcaklık 13°C
Nem 62%
Basınç 1025 hPa
Görüş mesafesi: 16.1 km
Açık gökyüzü

METAR: KSPF 191735Z AUTO 05007KT 020V080 10SM CLR 13/06 A3026 RMK AO2

Saat: 12:02 (18:02 UTC)


TAF: eksik

4.000'den fazla havaalanı için hava durumu gözlemleri ve tahminleri (METAR ve TAF raporları).

Kullanılabilir istasyonlar harita üzerinde sarı ve kırmızı noktalarla gösterilir.

İstasyonun adını görmek için fareyi noktanın üzerinde gezdirin.

Sonrasında hava gözlem ve tahminlerini görmek için tıklayın.

Haritayı değiştirmek için: yaklaştırmak için siyah artı işaretli yeşil düğmeye ve uzaklaştırmak için de eksi işaretli düğmeye hızla tıklayın; bitişik haritalar için yeşil okları kullanın.


METAR-TAF: